Kakushu Maru — JG5688 — position and weather

sailwx.info

Track history (hours):
 
Tides and Currents Weather Stations Pressure Air Temp Water Temp Dewpoint Dewpoint Depression Visibility Wind Speed Wind Dir Waves Ship Positions

Kakushu Maru

Last reported at 2016-Jul-06 01:33 UTC. Time now 2016-Aug-31 21:45 UTC.
Position N 34°35' E 134°54'.
Warning: this ship's position is 56 days out of date.

Length 105 m; draft 4.7 m.

Type: Tanker. MMSI: 431101016.

Date/timePositionNaut miles runAvg speedWind from/ knotsBaromVisibWave heightAir tempDewpointWater temp
2016-Jul-06 01:33N 34°35' E 134°54'10 9.7
2016-Jul-06 00:34N 34°31' E 135°04'1615.3
2016-Jul-05 23:30N 34°15' E 134°59'1415.4
2016-Jul-05 22:33N 34°01' E 135°00'24011.9
2016-Jul-05 02:23N 35°05' E 139°41'1113.7
2016-Jul-05 01:33N 35°15' E 139°46'8 7.6
2016-Jul-05 00:31N 35°23' E 139°45'0 0.0
2016-Jul-04 23:31N 35°23' E 139°45'0 0.0
2016-Jul-04 22:31N 35°23' E 139°45'0 0.0
2016-Jul-04 21:31N 35°23' E 139°45'0 0.0
2016-Jul-04 20:31N 35°23' E 139°45'0 0.0
2016-Jul-04 19:31N 35°23' E 139°45'0 0.0
2016-Jul-04 18:31N 35°23' E 139°45'0 0.1
2016-Jul-04 17:31N 35°23' E 139°45'0 0.1
2016-Jul-04 16:31N 35°23' E 139°45'0 0.1
2016-Jul-04 15:31N 35°23' E 139°45'0 0.1
2016-Jul-04 14:31N 35°23' E 139°45'0 0.0
2016-Jul-04 13:31N 35°23' E 139°45'0 0.0
2016-Jul-04 12:31N 35°23' E 139°45'0 0.0
2016-Jul-04 11:31N 35°23' E 139°45'1 1.2
2016-Jul-04 10:33N 35°24' E 139°45'3 3.1
2016-Jul-04 09:34N 35°26' E 139°48'3 3.4
2016-Jul-04 08:32N 35°24' E 139°45'0 0.1
2016-Jul-04 07:32N 35°24' E 139°45'0 0.0
2016-Jul-04 06:32N 35°24' E 139°45'0 0.0
2016-Jul-04 05:32N 35°24' E 139°45'0 0.0
2016-Jul-04 04:32N 35°24' E 139°45'3 3.1
2016-Jul-04 03:34N 35°23' E 139°41'8 8.3
2016-Jul-04 02:33N 35°29' E 139°48'3 2.8
2016-Jul-04 01:32N 35°31' E 139°51'0 0.1
2016-Jul-04 00:32N 35°31' E 139°51'0 0.0
2016-Jul-03 23:33N 35°31' E 139°51'0 0.0
2016-Jul-03 22:32N 35°31' E 139°51'0 0.0
2016-Jul-03 21:32N 35°31' E 139°51'0 0.0
2016-Jul-03 20:32N 35°31' E 139°51'0 0.1
2016-Jul-03 19:32N 35°31' E 139°51'0 0.0
2016-Jul-03 18:32N 35°31' E 139°51'0 0.0
2016-Jul-03 17:32N 35°31' E 139°51'0 0.0
2016-Jul-03 16:32N 35°31' E 139°51'0 0.0
2016-Jul-03 15:32N 35°31' E 139°51'0 0.0
2016-Jul-03 14:32N 35°31' E 139°51'0 0.0
2016-Jul-03 13:32N 35°31' E 139°51'0 0.0
2016-Jul-03 12:29N 35°31' E 139°51'0 0.2
2016-Jul-03 11:33N 35°31' E 139°51'0 0.1
2016-Jul-03 10:33N 35°31' E 139°51'0 0.0
2016-Jul-03 09:33N 35°31' E 139°51'0 0.0
2016-Jul-03 08:33N 35°31' E 139°51'0 0.0
2016-Jul-03 07:32N 35°31' E 139°51'0 0.0
2016-Jul-03 06:33N 35°31' E 139°51'0 0.0
2016-Jul-03 05:33N 35°31' E 139°51'0 0.0
2016-Jul-03 04:30N 35°31' E 139°51'0 0.0
2016-Jul-03 03:30N 35°31' E 139°51'0 0.0
2016-Jul-03 02:33N 35°31' E 139°51'0 0.0
2016-Jul-03 01:33N 35°31' E 139°51'0 0.0
2016-Jul-03 00:33N 35°31' E 139°51'0 0.0
2016-Jul-02 23:33N 35°31' E 139°51'4 3.7
2016-Jul-02 22:31N 35°31' E 139°46'0 0.0
2016-Jul-02 21:31N 35°31' E 139°46'0 0.0
2016-Jul-02 20:31N 35°31' E 139°46'0 0.0
2016-Jul-02 19:31N 35°31' E 139°46'0 0.0
2016-Jul-02 18:31N 35°31' E 139°46'0 0.0
2016-Jul-02 17:31N 35°31' E 139°46'0 0.0
2016-Jul-02 16:31N 35°31' E 139°46'0 0.0
2016-Jul-02 15:31N 35°31' E 139°46'0 0.0
2016-Jul-02 14:28N 35°31' E 139°46'0 0.0
2016-Jul-02 13:31N 35°31' E 139°46'0 0.0
2016-Jul-02 12:31N 35°31' E 139°46'0 0.0
2016-Jul-02 11:31N 35°31' E 139°46'0 0.0
2016-Jul-02 10:31N 35°31' E 139°46'0 0.0
2016-Jul-02 09:31N 35°31' E 139°46'0 0.0
2016-Jul-02 08:31N 35°31' E 139°46'0 0.1
2016-Jul-02 07:34N 35°31' E 139°46'5 4.7
2016-Jul-02 06:33N 35°26' E 139°45'2311.4
2016-Jul-02 04:33N 35°03' E 139°43'1110.8
2016-Jul-02 03:32N 34°53' E 139°47'1211.9
2016-Jul-02 02:33N 34°54' E 140°01'1212.1
2016-Jul-02 01:32N 34°60' E 140°15'1312.7
2016-Jul-02 00:30N 35°06' E 140°29'1612.4
2016-Jul-01 23:12N 35°19' E 140°42'2312.9
2016-Jul-01 21:26N 35°38' E 140°57'  
2016-Jun-26 15:33N 36°44' E 141°03'1514.0
2016-Jun-26 14:30N 36°30' E 140°56'1313.9
2016-Jun-26 13:33N 36°18' E 140°51'1413.9
2016-Jun-26 12:33N 36°05' E 140°45'1111.0
2016-Jun-26 11:33N 35°55' E 140°41'0 0.0
2016-Jun-26 10:31N 35°55' E 140°41'0 0.0
2016-Jun-26 03:33N 35°55' E 140°41'8 7.4
2016-Jun-26 02:26N 36°02' E 140°44'  
Track history (hours):
 
Tides and Currents Weather Stations Pressure Air Temp Water Temp Dewpoint Dewpoint Depression Visibility Wind Speed Wind Dir Waves Ship Positions

Kakushu Maru

Last reported at 2016-Jul-06 01:33 UTC. Time now 2016-Aug-31 21:45 UTC.
Position N 34°35' E 134°54'.
Warning: this ship's position is 56 days out of date.

Length 105 m; draft 4.7 m.

Type: Tanker. MMSI: 431101016.

Date/timePositionNaut miles runAvg speedWind from/ knotsBaromVisibWave heightAir tempDewpointWater temp
2016-Jul-06 01:33N 34°35' E 134°54'10 9.7
2016-Jul-06 00:34N 34°31' E 135°04'1615.3
2016-Jul-05 23:30N 34°15' E 134°59'1415.4
2016-Jul-05 22:33N 34°01' E 135°00'24011.9
2016-Jul-05 02:23N 35°05' E 139°41'1113.7
2016-Jul-05 01:33N 35°15' E 139°46'8 7.6
2016-Jul-05 00:31N 35°23' E 139°45'0 0.0
2016-Jul-04 23:31N 35°23' E 139°45'0 0.0
2016-Jul-04 22:31N 35°23' E 139°45'0 0.0
2016-Jul-04 21:31N 35°23' E 139°45'0 0.0
2016-Jul-04 20:31N 35°23' E 139°45'0 0.0
2016-Jul-04 19:31N 35°23' E 139°45'0 0.0
2016-Jul-04 18:31N 35°23' E 139°45'0 0.1
2016-Jul-04 17:31N 35°23' E 139°45'0 0.1
2016-Jul-04 16:31N 35°23' E 139°45'0 0.1
2016-Jul-04 15:31N 35°23' E 139°45'0 0.1
2016-Jul-04 14:31N 35°23' E 139°45'0 0.0
2016-Jul-04 13:31N 35°23' E 139°45'0 0.0
2016-Jul-04 12:31N 35°23' E 139°45'0 0.0
2016-Jul-04 11:31N 35°23' E 139°45'1 1.2
2016-Jul-04 10:33N 35°24' E 139°45'3 3.1
2016-Jul-04 09:34N 35°26' E 139°48'3 3.4
2016-Jul-04 08:32N 35°24' E 139°45'0 0.1
2016-Jul-04 07:32N 35°24' E 139°45'0 0.0
2016-Jul-04 06:32N 35°24' E 139°45'0 0.0
2016-Jul-04 05:32N 35°24' E 139°45'0 0.0
2016-Jul-04 04:32N 35°24' E 139°45'3 3.1
2016-Jul-04 03:34N 35°23' E 139°41'8 8.3
2016-Jul-04 02:33N 35°29' E 139°48'3 2.8
2016-Jul-04 01:32N 35°31' E 139°51'0 0.1
2016-Jul-04 00:32N 35°31' E 139°51'0 0.0
2016-Jul-03 23:33N 35°31' E 139°51'0 0.0
2016-Jul-03 22:32N 35°31' E 139°51'0 0.0
2016-Jul-03 21:32N 35°31' E 139°51'0 0.0
2016-Jul-03 20:32N 35°31' E 139°51'0 0.1
2016-Jul-03 19:32N 35°31' E 139°51'0 0.0
2016-Jul-03 18:32N 35°31' E 139°51'0 0.0
2016-Jul-03 17:32N 35°31' E 139°51'0 0.0
2016-Jul-03 16:32N 35°31' E 139°51'0 0.0
2016-Jul-03 15:32N 35°31' E 139°51'0 0.0
2016-Jul-03 14:32N 35°31' E 139°51'0 0.0
2016-Jul-03 13:32N 35°31' E 139°51'0 0.0
2016-Jul-03 12:29N 35°31' E 139°51'0 0.2
2016-Jul-03 11:33N 35°31' E 139°51'0 0.1
2016-Jul-03 10:33N 35°31' E 139°51'0 0.0
2016-Jul-03 09:33N 35°31' E 139°51'0 0.0
2016-Jul-03 08:33N 35°31' E 139°51'0 0.0
2016-Jul-03 07:32N 35°31' E 139°51'0 0.0
2016-Jul-03 06:33N 35°31' E 139°51'0 0.0
2016-Jul-03 05:33N 35°31' E 139°51'0 0.0
2016-Jul-03 04:30N 35°31' E 139°51'0 0.0
2016-Jul-03 03:30N 35°31' E 139°51'0 0.0
2016-Jul-03 02:33N 35°31' E 139°51'0 0.0
2016-Jul-03 01:33N 35°31' E 139°51'0 0.0
2016-Jul-03 00:33N 35°31' E 139°51'0 0.0
2016-Jul-02 23:33N 35°31' E 139°51'4 3.7
2016-Jul-02 22:31N 35°31' E 139°46'0 0.0
2016-Jul-02 21:31N 35°31' E 139°46'0 0.0
2016-Jul-02 20:31N 35°31' E 139°46'0 0.0
2016-Jul-02 19:31N 35°31' E 139°46'0 0.0
2016-Jul-02 18:31N 35°31' E 139°46'0 0.0
2016-Jul-02 17:31N 35°31' E 139°46'0 0.0
2016-Jul-02 16:31N 35°31' E 139°46'0 0.0
2016-Jul-02 15:31N 35°31' E 139°46'0 0.0
2016-Jul-02 14:28N 35°31' E 139°46'0 0.0
2016-Jul-02 13:31N 35°31' E 139°46'0 0.0
2016-Jul-02 12:31N 35°31' E 139°46'0 0.0
2016-Jul-02 11:31N 35°31' E 139°46'0 0.0
2016-Jul-02 10:31N 35°31' E 139°46'0 0.0
2016-Jul-02 09:31N 35°31' E 139°46'0 0.0
2016-Jul-02 08:31N 35°31' E 139°46'0 0.1
2016-Jul-02 07:34N 35°31' E 139°46'5 4.7
2016-Jul-02 06:33N 35°26' E 139°45'2311.4
2016-Jul-02 04:33N 35°03' E 139°43'1110.8
2016-Jul-02 03:32N 34°53' E 139°47'1211.9
2016-Jul-02 02:33N 34°54' E 140°01'1212.1
2016-Jul-02 01:32N 34°60' E 140°15'1312.7
2016-Jul-02 00:30N 35°06' E 140°29'1612.4
2016-Jul-01 23:12N 35°19' E 140°42'2312.9
2016-Jul-01 21:26N 35°38' E 140°57'  
2016-Jun-26 15:33N 36°44' E 141°03'1514.0
2016-Jun-26 14:30N 36°30' E 140°56'1313.9
2016-Jun-26 13:33N 36°18' E 140°51'1413.9
2016-Jun-26 12:33N 36°05' E 140°45'1111.0
2016-Jun-26 11:33N 35°55' E 140°41'0 0.0
2016-Jun-26 10:31N 35°55' E 140°41'0 0.0
2016-Jun-26 03:33N 35°55' E 140°41'8 7.4
2016-Jun-26 02:26N 36°02' E 140°44'  

Dump ship's entire track history